Hazelton, ND (58544)

4:41 PM CDT on September 22, 2014 (GMT -0500)
RAWS LONG LAKE NWR ND US | Change Station
CLOSE
Current Station
Personal Weather Station
Location: Moffit, ND
Elevation: 1834 ft
Nearby Weather Stations

Elev 1834 ft 46.68 °N, 100.24 °W | Updated 54 minutes ago

Clear
Clear
82 °F
Feels Like 81 °F
N
15
Wind Variable Wind from SSE
Gusts 24.0 mph

Today
High -- | Low -- °F
--% Chance of Precip.
Yesterday
High -- | Low -- °F
Precip. -- in
7:28 AM 7:38 PM
Waning Crescent, 2% visible
Pressure 29.99 in
Visibility 10.0 miles
Clouds Clear
Heat Index 81 °F
Dew Point 50 °F
Humidity 33%
Rainfall 0.00 in
Snow Depth Not available.
UV 3 out of 12
Pollen 4.80 out of 12
Air Quality Not available.
Flu Activity Not available.
METAR K7L2 222135Z AUTO 13013G16KT 10SM CLR 24/09 A2999 RMK AO2

More Conditions Fewer Conditions

Pressure 29.99 in
Visibility 10.0 miles
Clouds Clear
Heat Index 81 °F
Dew Point 50 °F
Humidity 33%
Rainfall 0.00 in
Snow Depth Not available.
UV 3 out of 12
Pollen 4.80 out of 12
Air Quality Not available.
Flu Activity Not available.
METAR K7L2 222135Z AUTO 13013G16KT 10SM CLR 24/09 A2999 RMK AO2

More Conditions Fewer Conditions

10-Day Weather Forecast

Almanac

Astronomy

Sep. 22, 2014 Rise Set
Actual Time 7:28 AM CDT 7:38 PM CDT
Civil Twilight 6:57 AM CDT 8:08 PM CDT
Nautical Twilight 6:22 AM CDT 8:44 PM CDT
Astronomical Twilight 5:46 AM CDT 9:20 PM CDT
Moon 5:54 AM CDT 6:49 PM CDT
Length of Visible Light 13h 10m
Length of Day
12h 10m
Tomorrow will be 3m 16s shorter.
Waning Crescent, 2% of the Moon is Illuminated
Today
Waning Crescent
Sep 24
New
Oct 1
First Quarter
Oct 8
Full
Oct 15
Last Quarter

Today's Extremes

State Highs State Lows

Community

WunderPhotos

Upload Photos

1,755,537 photos uploaded!

WunderBlogs® & News

Nearby

Snow Depth

Station Depth Elevation
No new snow has been reported.

Earthquake Activity

City Distance Mag. Time & Date
No recent earthquake activity has been reported nearby.
Minimum magnitude displayed is 2.5.

Coastal Water Temperatures

Place Temperature
No Stations Reporting

Nearby Weather Stations